MI24 weather

Deer Lake Airpark
East Jordan, Michigan, United States

Public forecast

Using degrees Fahrenheit for public forecast. Weather courtesy of forecast.io.

METAR (pilot weather report)

Closest report is Antrim County Airport, 12.3 nm (22.7 km) SW. Retrieved 2019/06/17 20:40 UTC (3 minutes ago):

KACB 172040Z AUTO 32006KT 10SM CLR 23/10 A3000 RMK AO2 T02320103

TAF (pilot weather forecast)

Closest forecast is Pellston Regional Airport of Emmet County Airport, 27.2 nm (50.5 km) NNE. Retrieved 2019/06/17 18:06 UTC (3 hours ago):

TAF KPLN 171804Z 1718/1818 VRB04KT P6SM BKN050 FM172100 VRB04KT P6SM FEW050 FM180100 00000KT P6SM FEW250 FM181300 VRB04KT P6SM BKN100